sensor_id;sensor_type;location;lat;lon;timestamp;P1;durP1;ratioP1;P2;durP2;ratioP2
11000;SDS011;5553;48.506;8.870;2023-05-15T00:00:43;7.83;;;6.70;;
11000;SDS011;5553;48.506;8.870;2023-05-15T00:03:11;7.07;;;6.20;;
11000;SDS011;5553;48.506;8.870;2023-05-15T00:05:40;7.70;;;6.00;;
11000;SDS011;5553;48.506;8.870;2023-05-15T00:08:08;6.50;;;5.50;;
11000;SDS011;5553;48.506;8.870;2023-05-15T00:10:36;8.43;;;6.63;;
11000;SDS011;5553;48.506;8.870;2023-05-15T00:13:05;7.23;;;5.80;;
11000;SDS011;5553;48.506;8.870;2023-05-15T00:15:35;8.23;;;6.17;;
11000;SDS011;5553;48.506;8.870;2023-05-15T00:18:04;9.60;;;6.70;;
11000;SDS011;5553;48.506;8.870;2023-05-15T00:20:32;7.93;;;6.57;;
11000;SDS011;5553;48.506;8.870;2023-05-15T00:23:01;9.07;;;6.53;;
11000;SDS011;5553;48.506;8.870;2023-05-15T00:25:29;8.00;;;6.30;;
11000;SDS011;5553;48.506;8.870;2023-05-15T00:27:57;7.67;;;5.67;;
11000;SDS011;5553;48.506;8.870;2023-05-15T00:30:26;9.20;;;6.43;;
11000;SDS011;5553;48.506;8.870;2023-05-15T00:32:57;8.63;;;6.00;;
11000;SDS011;5553;48.506;8.870;2023-05-15T00:35:25;7.67;;;5.73;;
11000;SDS011;5553;48.506;8.870;2023-05-15T00:37:54;13.57;;;6.30;;
11000;SDS011;5553;48.506;8.870;2023-05-15T00:40:22;8.97;;;6.60;;
11000;SDS011;5553;48.506;8.870;2023-05-15T00:42:52;5.80;;;5.20;;
11000;SDS011;5553;48.506;8.870;2023-05-15T00:45:21;8.97;;;6.83;;
11000;SDS011;5553;48.506;8.870;2023-05-15T00:47:51;7.67;;;6.13;;
11000;SDS011;5553;48.506;8.870;2023-05-15T00:50:23;5.20;;;4.70;;
11000;SDS011;5553;48.506;8.870;2023-05-15T00:52:52;7.27;;;5.90;;
11000;SDS011;5553;48.506;8.870;2023-05-15T00:55:22;9.30;;;5.70;;
11000;SDS011;5553;48.506;8.870;2023-05-15T00:57:53;16.37;;;5.97;;
11000;SDS011;5553;48.506;8.870;2023-05-15T01:00:23;7.90;;;6.27;;
11000;SDS011;5553;48.506;8.870;2023-05-15T01:02:52;7.00;;;5.70;;
11000;SDS011;5553;48.506;8.870;2023-05-15T01:05:23;9.00;;;6.13;;
11000;SDS011;5553;48.506;8.870;2023-05-15T01:07:55;6.93;;;5.50;;
11000;SDS011;5553;48.506;8.870;2023-05-15T01:10:28;8.67;;;5.83;;
11000;SDS011;5553;48.506;8.870;2023-05-15T01:12:56;7.97;;;6.10;;
11000;SDS011;5553;48.506;8.870;2023-05-15T01:15:26;8.47;;;5.87;;
11000;SDS011;5553;48.506;8.870;2023-05-15T01:17:54;8.00;;;6.10;;
11000;SDS011;5553;48.506;8.870;2023-05-15T01:20:25;7.63;;;5.80;;
11000;SDS011;5553;48.506;8.870;2023-05-15T01:25:49;9.13;;;6.70;;
11000;SDS011;5553;48.506;8.870;2023-05-15T01:28:50;8.63;;;6.90;;
11000;SDS011;5553;48.506;8.870;2023-05-15T01:31:25;10.17;;;6.77;;
11000;SDS011;5553;48.506;8.870;2023-05-15T01:33:58;6.30;;;5.10;;
11000;SDS011;5553;48.506;8.870;2023-05-15T01:36:32;8.87;;;5.90;;
11000;SDS011;5553;48.506;8.870;2023-05-15T01:39:04;8.87;;;6.57;;
11000;SDS011;5553;48.506;8.870;2023-05-15T01:41:35;8.40;;;6.63;;
11000;SDS011;5553;48.506;8.870;2023-05-15T01:44:13;10.30;;;6.47;;
11000;SDS011;5553;48.506;8.870;2023-05-15T01:46:50;9.73;;;7.23;;
11000;SDS011;5553;48.506;8.870;2023-05-15T01:49:22;8.13;;;5.80;;
11000;SDS011;5553;48.506;8.870;2023-05-15T01:51:54;7.10;;;5.17;;
11000;SDS011;5553;48.506;8.870;2023-05-15T01:54:28;8.80;;;5.20;;
11000;SDS011;5553;48.506;8.870;2023-05-15T01:56:57;7.07;;;5.90;;
11000;SDS011;5553;48.506;8.870;2023-05-15T01:59:28;8.20;;;6.47;;
11000;SDS011;5553;48.506;8.870;2023-05-15T02:01:58;8.43;;;6.60;;
11000;SDS011;5553;48.506;8.870;2023-05-15T02:04:27;8.43;;;6.47;;
11000;SDS011;5553;48.506;8.870;2023-05-15T02:06:57;8.30;;;5.90;;
11000;SDS011;5553;48.506;8.870;2023-05-15T02:09:27;8.70;;;6.63;;
11000;SDS011;5553;48.506;8.870;2023-05-15T02:11:57;9.83;;;6.63;;
11000;SDS011;5553;48.506;8.870;2023-05-15T02:14:30;10.00;;;6.77;;
11000;SDS011;5553;48.506;8.870;2023-05-15T02:16:59;9.30;;;6.30;;
11000;SDS011;5553;48.506;8.870;2023-05-15T02:19:27;8.10;;;6.70;;
11000;SDS011;5553;48.506;8.870;2023-05-15T02:21:56;8.60;;;7.03;;
11000;SDS011;5553;48.506;8.870;2023-05-15T02:24:24;8.93;;;6.60;;
11000;SDS011;5553;48.506;8.870;2023-05-15T02:26:54;9.30;;;6.93;;
11000;SDS011;5553;48.506;8.870;2023-05-15T02:29:30;9.23;;;7.10;;
11000;SDS011;5553;48.506;8.870;2023-05-15T02:32:13;8.30;;;6.73;;
11000;SDS011;5553;48.506;8.870;2023-05-15T02:34:51;9.73;;;7.40;;
11000;SDS011;5553;48.506;8.870;2023-05-15T02:37:26;11.70;;;6.57;;
11000;SDS011;5553;48.506;8.870;2023-05-15T02:39:58;9.20;;;6.90;;
11000;SDS011;5553;48.506;8.870;2023-05-15T02:42:28;8.10;;;6.80;;
11000;SDS011;5553;48.506;8.870;2023-05-15T02:45:00;9.03;;;6.10;;
11000;SDS011;5553;48.506;8.870;2023-05-15T02:47:30;11.90;;;6.47;;
11000;SDS011;5553;48.506;8.870;2023-05-15T02:50:00;8.07;;;6.33;;
11000;SDS011;5553;48.506;8.870;2023-05-15T02:52:29;8.90;;;6.87;;
11000;SDS011;5553;48.506;8.870;2023-05-15T02:54:57;7.20;;;6.50;;
11000;SDS011;5553;48.506;8.870;2023-05-15T02:57:26;7.77;;;6.70;;
11000;SDS011;5553;48.506;8.870;2023-05-15T02:59:54;10.17;;;7.30;;
11000;SDS011;5553;48.506;8.870;2023-05-15T03:02:26;7.53;;;5.63;;
11000;SDS011;5553;48.506;8.870;2023-05-15T03:04:55;10.27;;;6.17;;
11000;SDS011;5553;48.506;8.870;2023-05-15T03:07:23;10.03;;;7.00;;
11000;SDS011;5553;48.506;8.870;2023-05-15T03:09:51;9.40;;;6.20;;
11000;SDS011;5553;48.506;8.870;2023-05-15T03:12:20;9.20;;;6.50;;
11000;SDS011;5553;48.506;8.870;2023-05-15T03:14:48;9.83;;;6.47;;
11000;SDS011;5553;48.506;8.870;2023-05-15T03:17:16;9.30;;;6.77;;
11000;SDS011;5553;48.506;8.870;2023-05-15T03:19:48;7.27;;;6.20;;
11000;SDS011;5553;48.506;8.870;2023-05-15T03:22:16;8.00;;;6.20;;
11000;SDS011;5553;48.506;8.870;2023-05-15T03:24:44;7.93;;;7.00;;
11000;SDS011;5553;48.506;8.870;2023-05-15T03:27:13;9.90;;;6.10;;
11000;SDS011;5553;48.506;8.870;2023-05-15T03:29:41;10.20;;;7.13;;
11000;SDS011;5553;48.506;8.870;2023-05-15T03:32:10;9.33;;;6.90;;
11000;SDS011;5553;48.506;8.870;2023-05-15T03:34:38;13.10;;;7.50;;
11000;SDS011;5553;48.506;8.870;2023-05-15T03:37:09;7.50;;;6.20;;
11000;SDS011;5553;48.506;8.870;2023-05-15T03:39:37;7.70;;;5.90;;
11000;SDS011;5553;48.506;8.870;2023-05-15T03:42:06;9.00;;;6.77;;
11000;SDS011;5553;48.506;8.870;2023-05-15T03:44:34;8.10;;;6.47;;
11000;SDS011;5553;48.506;8.870;2023-05-15T03:47:03;9.67;;;7.00;;
11000;SDS011;5553;48.506;8.870;2023-05-15T03:49:32;8.53;;;6.50;;
11000;SDS011;5553;48.506;8.870;2023-05-15T03:52:00;8.30;;;6.53;;
11000;SDS011;5553;48.506;8.870;2023-05-15T03:54:31;9.23;;;6.57;;
11000;SDS011;5553;48.506;8.870;2023-05-15T03:56:59;8.53;;;6.47;;
11000;SDS011;5553;48.506;8.870;2023-05-15T03:59:28;10.50;;;7.33;;
11000;SDS011;5553;48.506;8.870;2023-05-15T04:01:56;7.67;;;6.60;;
11000;SDS011;5553;48.506;8.870;2023-05-15T04:04:24;8.77;;;5.70;;
11000;SDS011;5553;48.506;8.870;2023-05-15T04:06:53;10.20;;;6.50;;
11000;SDS011;5553;48.506;8.870;2023-05-15T04:09:21;7.27;;;5.43;;
11000;SDS011;5553;48.506;8.870;2023-05-15T04:11:52;8.37;;;6.57;;
11000;SDS011;5553;48.506;8.870;2023-05-15T04:14:20;9.10;;;6.37;;
11000;SDS011;5553;48.506;8.870;2023-05-15T04:16:48;9.53;;;6.77;;
11000;SDS011;5553;48.506;8.870;2023-05-15T04:19:17;7.10;;;5.97;;
11000;SDS011;5553;48.506;8.870;2023-05-15T04:21:45;8.30;;;6.20;;
11000;SDS011;5553;48.506;8.870;2023-05-15T04:24:13;10.07;;;6.57;;
11000;SDS011;5553;48.506;8.870;2023-05-15T04:26:41;7.17;;;6.03;;
11000;SDS011;5553;48.506;8.870;2023-05-15T04:29:12;7.40;;;5.90;;
11000;SDS011;5553;48.506;8.870;2023-05-15T04:31:40;14.87;;;7.57;;
11000;SDS011;5553;48.506;8.870;2023-05-15T04:34:09;10.27;;;7.20;;
11000;SDS011;5553;48.506;8.870;2023-05-15T04:36:37;9.30;;;6.50;;
11000;SDS011;5553;48.506;8.870;2023-05-15T04:39:05;8.20;;;6.30;;
11000;SDS011;5553;48.506;8.870;2023-05-15T04:41:34;9.73;;;7.10;;
11000;SDS011;5553;48.506;8.870;2023-05-15T04:44:02;12.60;;;6.80;;
11000;SDS011;5553;48.506;8.870;2023-05-15T04:46:33;9.63;;;6.80;;
11000;SDS011;5553;48.506;8.870;2023-05-15T04:49:01;11.43;;;7.90;;
11000;SDS011;5553;48.506;8.870;2023-05-15T04:51:30;8.57;;;7.40;;
11000;SDS011;5553;48.506;8.870;2023-05-15T04:53:59;8.53;;;6.00;;
11000;SDS011;5553;48.506;8.870;2023-05-15T04:56:27;9.27;;;6.57;;
11000;SDS011;5553;48.506;8.870;2023-05-15T04:58:55;8.13;;;6.47;;
11000;SDS011;5553;48.506;8.870;2023-05-15T05:01:24;15.63;;;6.97;;
11000;SDS011;5553;48.506;8.870;2023-05-15T05:03:55;12.47;;;6.33;;
11000;SDS011;5553;48.506;8.870;2023-05-15T05:06:23;9.37;;;7.47;;
11000;SDS011;5553;48.506;8.870;2023-05-15T05:08:51;9.20;;;6.47;;
11000;SDS011;5553;48.506;8.870;2023-05-15T05:11:19;9.77;;;7.10;;
11000;SDS011;5553;48.506;8.870;2023-05-15T05:13:48;8.70;;;7.20;;
11000;SDS011;5553;48.506;8.870;2023-05-15T05:16:16;9.93;;;7.30;;
11000;SDS011;5553;48.506;8.870;2023-05-15T05:18:44;8.77;;;6.63;;
11000;SDS011;5553;48.506;8.870;2023-05-15T05:21:15;10.10;;;7.67;;
11000;SDS011;5553;48.506;8.870;2023-05-15T05:23:44;11.77;;;7.40;;
11000;SDS011;5553;48.506;8.870;2023-05-15T05:26:12;7.50;;;6.70;;
11000;SDS011;5553;48.506;8.870;2023-05-15T05:28:40;8.67;;;7.07;;
11000;SDS011;5553;48.506;8.870;2023-05-15T05:31:08;9.50;;;6.50;;
11000;SDS011;5553;48.506;8.870;2023-05-15T05:33:36;8.63;;;7.17;;
11000;SDS011;5553;48.506;8.870;2023-05-15T05:36:05;10.67;;;7.60;;
11000;SDS011;5553;48.506;8.870;2023-05-15T05:38:36;10.37;;;7.60;;
11000;SDS011;5553;48.506;8.870;2023-05-15T05:41:05;9.97;;;7.93;;
11000;SDS011;5553;48.506;8.870;2023-05-15T05:43:33;7.23;;;6.33;;
11000;SDS011;5553;48.506;8.870;2023-05-15T05:46:01;10.87;;;7.77;;
11000;SDS011;5553;48.506;8.870;2023-05-15T05:48:30;8.43;;;6.80;;
11000;SDS011;5553;48.506;8.870;2023-05-15T05:50:58;8.80;;;6.50;;
11000;SDS011;5553;48.506;8.870;2023-05-15T05:53:26;11.43;;;8.20;;
11000;SDS011;5553;48.506;8.870;2023-05-15T05:55:57;9.50;;;6.60;;
11000;SDS011;5553;48.506;8.870;2023-05-15T05:58:25;8.90;;;8.00;;
11000;SDS011;5553;48.506;8.870;2023-05-15T06:00:54;8.37;;;7.07;;
11000;SDS011;5553;48.506;8.870;2023-05-15T06:03:22;10.70;;;7.63;;
11000;SDS011;5553;48.506;8.870;2023-05-15T06:05:51;8.37;;;6.90;;
11000;SDS011;5553;48.506;8.870;2023-05-15T06:08:19;12.43;;;7.73;;
11000;SDS011;5553;48.506;8.870;2023-05-15T06:10:48;9.50;;;8.10;;
11000;SDS011;5553;48.506;8.870;2023-05-15T06:13:19;14.50;;;8.30;;
11000;SDS011;5553;48.506;8.870;2023-05-15T06:15:47;9.93;;;8.80;;
11000;SDS011;5553;48.506;8.870;2023-05-15T06:18:15;10.03;;;7.07;;
11000;SDS011;5553;48.506;8.870;2023-05-15T06:20:45;13.57;;;8.73;;
11000;SDS011;5553;48.506;8.870;2023-05-15T06:23:13;9.83;;;8.07;;
11000;SDS011;5553;48.506;8.870;2023-05-15T06:25:41;9.70;;;8.17;;
11000;SDS011;5553;48.506;8.870;2023-05-15T06:28:09;11.13;;;8.70;;
11000;SDS011;5553;48.506;8.870;2023-05-15T06:30:41;11.20;;;8.90;;
11000;SDS011;5553;48.506;8.870;2023-05-15T06:33:09;9.43;;;8.03;;
11000;SDS011;5553;48.506;8.870;2023-05-15T06:35:37;9.50;;;7.73;;
11000;SDS011;5553;48.506;8.870;2023-05-15T06:38:05;11.33;;;8.30;;
11000;SDS011;5553;48.506;8.870;2023-05-15T06:40:33;10.83;;;8.60;;
11000;SDS011;5553;48.506;8.870;2023-05-15T06:43:02;10.13;;;7.73;;
11000;SDS011;5553;48.506;8.870;2023-05-15T06:45:30;9.30;;;8.30;;
11000;SDS011;5553;48.506;8.870;2023-05-15T06:48:01;10.87;;;8.37;;
11000;SDS011;5553;48.506;8.870;2023-05-15T06:50:29;9.17;;;8.03;;
11000;SDS011;5553;48.506;8.870;2023-05-15T06:52:57;9.40;;;7.27;;
11000;SDS011;5553;48.506;8.870;2023-05-15T06:55:26;9.70;;;8.10;;
11000;SDS011;5553;48.506;8.870;2023-05-15T06:57:54;9.63;;;7.97;;
11000;SDS011;5553;48.506;8.870;2023-05-15T07:00:22;10.63;;;8.47;;
11000;SDS011;5553;48.506;8.870;2023-05-15T07:02:50;9.67;;;8.00;;
11000;SDS011;5553;48.506;8.870;2023-05-15T07:05:21;10.63;;;9.53;;
11000;SDS011;5553;48.506;8.870;2023-05-15T07:07:49;10.20;;;8.30;;
11000;SDS011;5553;48.506;8.870;2023-05-15T07:10:18;9.57;;;8.53;;
11000;SDS011;5553;48.506;8.870;2023-05-15T07:12:46;9.83;;;8.83;;
11000;SDS011;5553;48.506;8.870;2023-05-15T07:15:14;11.50;;;8.80;;
11000;SDS011;5553;48.506;8.870;2023-05-15T07:17:43;10.37;;;8.97;;
11000;SDS011;5553;48.506;8.870;2023-05-15T07:20:11;9.93;;;8.30;;
11000;SDS011;5553;48.506;8.870;2023-05-15T07:22:42;8.03;;;6.87;;
11000;SDS011;5553;48.506;8.870;2023-05-15T07:25:11;14.23;;;8.13;;
11000;SDS011;5553;48.506;8.870;2023-05-15T07:27:39;11.57;;;7.90;;
11000;SDS011;5553;48.506;8.870;2023-05-15T07:30:08;9.33;;;8.33;;
11000;SDS011;5553;48.506;8.870;2023-05-15T07:32:37;8.80;;;7.90;;
11000;SDS011;5553;48.506;8.870;2023-05-15T07:35:05;8.50;;;7.63;;
11000;SDS011;5553;48.506;8.870;2023-05-15T07:37:35;8.57;;;7.67;;
11000;SDS011;5553;48.506;8.870;2023-05-15T07:40:07;9.10;;;8.20;;
11000;SDS011;5553;48.506;8.870;2023-05-15T07:42:36;9.87;;;8.60;;
11000;SDS011;5553;48.506;8.870;2023-05-15T07:45:04;8.70;;;7.80;;
11000;SDS011;5553;48.506;8.870;2023-05-15T07:47:34;10.37;;;8.20;;
11000;SDS011;5553;48.506;8.870;2023-05-15T07:50:02;11.83;;;7.67;;
11000;SDS011;5553;48.506;8.870;2023-05-15T07:52:31;9.17;;;8.20;;
11000;SDS011;5553;48.506;8.870;2023-05-15T07:54:59;9.23;;;8.43;;
11000;SDS011;5553;48.506;8.870;2023-05-15T07:57:31;7.80;;;7.10;;
11000;SDS011;5553;48.506;8.870;2023-05-15T07:59:59;8.23;;;7.40;;
11000;SDS011;5553;48.506;8.870;2023-05-15T08:02:35;9.80;;;7.90;;
11000;SDS011;5553;48.506;8.870;2023-05-15T08:05:04;9.33;;;6.63;;
11000;SDS011;5553;48.506;8.870;2023-05-15T08:07:33;9.63;;;7.73;;
11000;SDS011;5553;48.506;8.870;2023-05-15T08:10:02;8.90;;;8.00;;
11000;SDS011;5553;48.506;8.870;2023-05-15T08:12:33;9.67;;;7.53;;
11000;SDS011;5553;48.506;8.870;2023-05-15T08:15:02;8.60;;;7.70;;
11000;SDS011;5553;48.506;8.870;2023-05-15T08:17:30;9.53;;;7.23;;
11000;SDS011;5553;48.506;8.870;2023-05-15T08:19:59;8.80;;;7.90;;
11000;SDS011;5553;48.506;8.870;2023-05-15T08:22:28;8.70;;;7.50;;
11000;SDS011;5553;48.506;8.870;2023-05-15T08:24:57;7.13;;;6.43;;
11000;SDS011;5553;48.506;8.870;2023-05-15T08:27:27;8.23;;;7.43;;
11000;SDS011;5553;48.506;8.870;2023-05-15T08:29:58;7.10;;;6.40;;
11000;SDS011;5553;48.506;8.870;2023-05-15T08:32:28;7.20;;;6.50;;
11000;SDS011;5553;48.506;8.870;2023-05-15T08:34:56;7.90;;;7.07;;
11000;SDS011;5553;48.506;8.870;2023-05-15T08:37:24;7.37;;;6.67;;
11000;SDS011;5553;48.506;8.870;2023-05-15T08:39:53;6.60;;;6.00;;
11000;SDS011;5553;48.506;8.870;2023-05-15T08:42:23;9.67;;;6.33;;
11000;SDS011;5553;48.506;8.870;2023-05-15T08:44:55;7.03;;;6.33;;
11000;SDS011;5553;48.506;8.870;2023-05-15T08:47:26;5.77;;;5.30;;
11000;SDS011;5553;48.506;8.870;2023-05-15T08:49:57;6.90;;;5.23;;
11000;SDS011;5553;48.506;8.870;2023-05-15T08:52:29;5.43;;;4.67;;
11000;SDS011;5553;48.506;8.870;2023-05-15T08:54:59;6.27;;;5.63;;
11000;SDS011;5553;48.506;8.870;2023-05-15T08:57:27;4.97;;;4.47;;
11000;SDS011;5553;48.506;8.870;2023-05-15T08:59:56;4.70;;;4.30;;
11000;SDS011;5553;48.506;8.870;2023-05-15T09:02:28;5.67;;;5.00;;
11000;SDS011;5553;48.506;8.870;2023-05-15T09:04:56;5.20;;;4.70;;
11000;SDS011;5553;48.506;8.870;2023-05-15T09:07:25;5.50;;;5.00;;
11000;SDS011;5553;48.506;8.870;2023-05-15T09:09:53;5.60;;;5.20;;
11000;SDS011;5553;48.506;8.870;2023-05-15T09:12:24;6.20;;;5.70;;
11000;SDS011;5553;48.506;8.870;2023-05-15T09:15:06;6.60;;;5.87;;
11000;SDS011;5553;48.506;8.870;2023-05-15T09:17:38;6.53;;;5.93;;
11000;SDS011;5553;48.506;8.870;2023-05-15T09:20:10;7.03;;;6.17;;
11000;SDS011;5553;48.506;8.870;2023-05-15T09:22:52;6.00;;;5.50;;
11000;SDS011;5553;48.506;8.870;2023-05-15T09:25:30;6.07;;;4.97;;
11000;SDS011;5553;48.506;8.870;2023-05-15T09:28:01;6.73;;;5.87;;
11000;SDS011;5553;48.506;8.870;2023-05-15T09:30:30;6.33;;;5.60;;
11000;SDS011;5553;48.506;8.870;2023-05-15T09:33:01;6.60;;;5.90;;
11000;SDS011;5553;48.506;8.870;2023-05-15T09:35:30;7.20;;;6.20;;
11000;SDS011;5553;48.506;8.870;2023-05-15T09:37:59;6.80;;;6.20;;
11000;SDS011;5553;48.506;8.870;2023-05-15T09:40:29;6.83;;;6.23;;
11000;SDS011;5553;48.506;8.870;2023-05-15T09:42:58;7.70;;;5.57;;
11000;SDS011;5553;48.506;8.870;2023-05-15T09:45:26;8.07;;;6.47;;
11000;SDS011;5553;48.506;8.870;2023-05-15T09:47:56;5.97;;;5.47;;
11000;SDS011;5553;48.506;8.870;2023-05-15T09:50:32;6.53;;;5.87;;
11000;SDS011;5553;48.506;8.870;2023-05-15T09:53:01;6.43;;;5.87;;
11000;SDS011;5553;48.506;8.870;2023-05-15T09:55:30;6.50;;;5.73;;
11000;SDS011;5553;48.506;8.870;2023-05-15T09:58:03;9.73;;;5.80;;
11000;SDS011;5553;48.506;8.870;2023-05-15T10:00:33;6.37;;;5.77;;
11000;SDS011;5553;48.506;8.870;2023-05-15T10:03:05;5.27;;;4.77;;
11000;SDS011;5553;48.506;8.870;2023-05-15T10:05:34;5.40;;;4.90;;
11000;SDS011;5553;48.506;8.870;2023-05-15T10:08:03;4.80;;;4.40;;
11000;SDS011;5553;48.506;8.870;2023-05-15T10:10:32;5.80;;;5.20;;
11000;SDS011;5553;48.506;8.870;2023-05-15T10:13:00;6.00;;;4.83;;
11000;SDS011;5553;48.506;8.870;2023-05-15T10:15:30;7.90;;;5.20;;
11000;SDS011;5553;48.506;8.870;2023-05-15T10:17:59;7.77;;;6.80;;
11000;SDS011;5553;48.506;8.870;2023-05-15T10:20:33;7.73;;;5.90;;
11000;SDS011;5553;48.506;8.870;2023-05-15T10:23:03;5.70;;;5.10;;
11000;SDS011;5553;48.506;8.870;2023-05-15T10:25:33;7.30;;;6.50;;
11000;SDS011;5553;48.506;8.870;2023-05-15T10:28:08;7.93;;;7.23;;
11000;SDS011;5553;48.506;8.870;2023-05-15T10:30:37;8.03;;;7.30;;
11000;SDS011;5553;48.506;8.870;2023-05-15T10:33:06;7.93;;;7.13;;
11000;SDS011;5553;48.506;8.870;2023-05-15T10:35:37;6.50;;;5.37;;
11000;SDS011;5553;48.506;8.870;2023-05-15T10:38:06;5.70;;;5.20;;
11000;SDS011;5553;48.506;8.870;2023-05-15T10:40:36;7.13;;;5.70;;
11000;SDS011;5553;48.506;8.870;2023-05-15T10:43:06;5.57;;;5.03;;
11000;SDS011;5553;48.506;8.870;2023-05-15T10:45:36;5.67;;;5.17;;
11000;SDS011;5553;48.506;8.870;2023-05-15T10:48:05;7.00;;;6.30;;
11000;SDS011;5553;48.506;8.870;2023-05-15T10:50:39;5.53;;;5.03;;
11000;SDS011;5553;48.506;8.870;2023-05-15T10:53:08;6.20;;;5.60;;
11000;SDS011;5553;48.506;8.870;2023-05-15T10:55:36;5.20;;;4.80;;
11000;SDS011;5553;48.506;8.870;2023-05-15T10:58:07;5.77;;;5.27;;
11000;SDS011;5553;48.506;8.870;2023-05-15T11:00:39;5.00;;;4.60;;
11000;SDS011;5553;48.506;8.870;2023-05-15T11:03:12;6.00;;;5.40;;
11000;SDS011;5553;48.506;8.870;2023-05-15T11:08:39;5.50;;;5.00;;
11000;SDS011;5553;48.506;8.870;2023-05-15T11:11:09;5.03;;;4.53;;
11000;SDS011;5553;48.506;8.870;2023-05-15T11:14:21;5.90;;;5.40;;
11000;SDS011;5553;48.506;8.870;2023-05-15T11:17:00;5.33;;;4.83;;
11000;SDS011;5553;48.506;8.870;2023-05-15T11:22:30;4.37;;;3.97;;
11000;SDS011;5553;48.506;8.870;2023-05-15T11:25:00;5.33;;;4.47;;
11000;SDS011;5553;48.506;8.870;2023-05-15T11:27:31;4.50;;;3.90;;
11000;SDS011;5553;48.506;8.870;2023-05-15T11:30:05;4.40;;;3.90;;
11000;SDS011;5553;48.506;8.870;2023-05-15T11:32:48;4.40;;;3.10;;
11000;SDS011;5553;48.506;8.870;2023-05-15T11:35:18;3.70;;;3.40;;
11000;SDS011;5553;48.506;8.870;2023-05-15T11:37:52;4.10;;;3.70;;
11000;SDS011;5553;48.506;8.870;2023-05-15T11:40:22;4.50;;;4.10;;
11000;SDS011;5553;48.506;8.870;2023-05-15T11:43:03;5.10;;;4.70;;
11000;SDS011;5553;48.506;8.870;2023-05-15T11:45:34;5.10;;;4.60;;
11000;SDS011;5553;48.506;8.870;2023-05-15T11:48:04;5.77;;;4.40;;
11000;SDS011;5553;48.506;8.870;2023-05-15T11:50:33;5.00;;;4.53;;
11000;SDS011;5553;48.506;8.870;2023-05-15T11:53:05;12.83;;;4.33;;
11000;SDS011;5553;48.506;8.870;2023-05-15T11:55:35;7.67;;;4.97;;
11000;SDS011;5553;48.506;8.870;2023-05-15T11:58:09;5.63;;;4.77;;
11000;SDS011;5553;48.506;8.870;2023-05-15T12:00:38;6.60;;;5.60;;
11000;SDS011;5553;48.506;8.870;2023-05-15T12:03:10;4.77;;;4.37;;
11000;SDS011;5553;48.506;8.870;2023-05-15T12:05:41;5.17;;;4.70;;
11000;SDS011;5553;48.506;8.870;2023-05-15T12:08:12;4.90;;;4.50;;
11000;SDS011;5553;48.506;8.870;2023-05-15T12:10:41;6.50;;;4.40;;
11000;SDS011;5553;48.506;8.870;2023-05-15T12:13:10;5.80;;;4.50;;
11000;SDS011;5553;48.506;8.870;2023-05-15T12:15:40;5.07;;;4.57;;
11000;SDS011;5553;48.506;8.870;2023-05-15T12:18:10;4.97;;;4.43;;
11000;SDS011;5553;48.506;8.870;2023-05-15T12:20:39;5.73;;;5.23;;
11000;SDS011;5553;48.506;8.870;2023-05-15T12:23:13;5.47;;;4.20;;
11000;SDS011;5553;48.506;8.870;2023-05-15T12:25:43;5.70;;;5.20;;
11000;SDS011;5553;48.506;8.870;2023-05-15T12:28:13;5.17;;;4.67;;
11000;SDS011;5553;48.506;8.870;2023-05-15T12:30:42;4.20;;;3.67;;
11000;SDS011;5553;48.506;8.870;2023-05-15T12:33:11;4.60;;;4.20;;
11000;SDS011;5553;48.506;8.870;2023-05-15T12:35:40;4.53;;;4.13;;
11000;SDS011;5553;48.506;8.870;2023-05-15T12:38:15;4.60;;;4.23;;
11000;SDS011;5553;48.506;8.870;2023-05-15T12:40:43;4.83;;;4.23;;
11000;SDS011;5553;48.506;8.870;2023-05-15T12:43:14;6.67;;;4.07;;
11000;SDS011;5553;48.506;8.870;2023-05-15T12:45:42;4.73;;;3.63;;
11000;SDS011;5553;48.506;8.870;2023-05-15T12:48:12;4.60;;;4.30;;
11000;SDS011;5553;48.506;8.870;2023-05-15T12:50:42;4.63;;;4.23;;
11000;SDS011;5553;48.506;8.870;2023-05-15T12:53:12;5.00;;;4.60;;
11000;SDS011;5553;48.506;8.870;2023-05-15T12:55:43;4.63;;;4.23;;
11000;SDS011;5553;48.506;8.870;2023-05-15T12:58:14;4.77;;;4.37;;
11000;SDS011;5553;48.506;8.870;2023-05-15T13:00:43;4.13;;;3.83;;
11000;SDS011;5553;48.506;8.870;2023-05-15T13:03:12;5.80;;;4.30;;
11000;SDS011;5553;48.506;8.870;2023-05-15T13:05:42;4.00;;;3.60;;
11000;SDS011;5553;48.506;8.870;2023-05-15T13:08:16;4.67;;;4.27;;
11000;SDS011;5553;48.506;8.870;2023-05-15T13:10:45;4.63;;;4.10;;
11000;SDS011;5553;48.506;8.870;2023-05-15T13:13:14;4.90;;;4.30;;
11000;SDS011;5553;48.506;8.870;2023-05-15T13:15:43;4.23;;;3.67;;
11000;SDS011;5553;48.506;8.870;2023-05-15T13:18:12;4.03;;;3.73;;
11000;SDS011;5553;48.506;8.870;2023-05-15T13:20:42;4.20;;;3.90;;
11000;SDS011;5553;48.506;8.870;2023-05-15T13:23:13;4.30;;;3.90;;
11000;SDS011;5553;48.506;8.870;2023-05-15T13:25:45;4.80;;;4.40;;
11000;SDS011;5553;48.506;8.870;2023-05-15T13:28:14;5.87;;;3.83;;
11000;SDS011;5553;48.506;8.870;2023-05-15T13:30:42;4.70;;;3.90;;
11000;SDS011;5553;48.506;8.870;2023-05-15T13:33:10;3.80;;;3.50;;
11000;SDS011;5553;48.506;8.870;2023-05-15T13:35:40;4.13;;;3.70;;
11000;SDS011;5553;48.506;8.870;2023-05-15T13:38:09;32.40;;;13.50;;
11000;SDS011;5553;48.506;8.870;2023-05-15T13:40:40;7.40;;;4.50;;
11000;SDS011;5553;48.506;8.870;2023-05-15T13:43:08;14.80;;;7.40;;
11000;SDS011;5553;48.506;8.870;2023-05-15T13:45:37;4.23;;;3.53;;
11000;SDS011;5553;48.506;8.870;2023-05-15T13:48:05;6.23;;;4.03;;
11000;SDS011;5553;48.506;8.870;2023-05-15T13:50:33;5.80;;;3.90;;
11000;SDS011;5553;48.506;8.870;2023-05-15T13:53:02;3.73;;;3.43;;
11000;SDS011;5553;48.506;8.870;2023-05-15T13:55:30;4.53;;;4.13;;
11000;SDS011;5553;48.506;8.870;2023-05-15T13:58:01;10.67;;;7.30;;
11000;SDS011;5553;48.506;8.870;2023-05-15T14:00:29;4.80;;;4.40;;
11000;SDS011;5553;48.506;8.870;2023-05-15T14:02:57;7.07;;;4.70;;
11000;SDS011;5553;48.506;8.870;2023-05-15T14:05:26;3.87;;;3.50;;
11000;SDS011;5553;48.506;8.870;2023-05-15T14:07:54;15.00;;;7.00;;
11000;SDS011;5553;48.506;8.870;2023-05-15T14:10:22;4.50;;;4.10;;
11000;SDS011;5553;48.506;8.870;2023-05-15T14:12:51;3.83;;;3.53;;
11000;SDS011;5553;48.506;8.870;2023-05-15T14:15:22;20.37;;;15.03;;
11000;SDS011;5553;48.506;8.870;2023-05-15T14:17:50;3.90;;;3.50;;
11000;SDS011;5553;48.506;8.870;2023-05-15T14:20:18;8.40;;;4.00;;
11000;SDS011;5553;48.506;8.870;2023-05-15T14:22:46;5.13;;;4.53;;
11000;SDS011;5553;48.506;8.870;2023-05-15T14:25:15;5.27;;;4.87;;
11000;SDS011;5553;48.506;8.870;2023-05-15T14:27:43;6.37;;;4.30;;
11000;SDS011;5553;48.506;8.870;2023-05-15T14:30:11;4.50;;;4.10;;
11000;SDS011;5553;48.506;8.870;2023-05-15T14:32:42;5.40;;;4.90;;
11000;SDS011;5553;48.506;8.870;2023-05-15T14:35:11;7.43;;;5.80;;
11000;SDS011;5553;48.506;8.870;2023-05-15T14:37:39;5.00;;;4.50;;
11000;SDS011;5553;48.506;8.870;2023-05-15T14:40:08;7.10;;;4.67;;
11000;SDS011;5553;48.506;8.870;2023-05-15T14:42:37;5.20;;;4.57;;
11000;SDS011;5553;48.506;8.870;2023-05-15T14:45:06;7.70;;;5.80;;
11000;SDS011;5553;48.506;8.870;2023-05-15T14:47:35;5.23;;;4.83;;
11000;SDS011;5553;48.506;8.870;2023-05-15T14:50:06;4.17;;;3.87;;
11000;SDS011;5553;48.506;8.870;2023-05-15T14:52:35;4.50;;;4.10;;
11000;SDS011;5553;48.506;8.870;2023-05-15T14:55:03;4.17;;;3.83;;
11000;SDS011;5553;48.506;8.870;2023-05-15T14:57:33;5.30;;;4.30;;
11000;SDS011;5553;48.506;8.870;2023-05-15T15:00:01;4.93;;;4.13;;
11000;SDS011;5553;48.506;8.870;2023-05-15T15:02:31;5.77;;;4.50;;
11000;SDS011;5553;48.506;8.870;2023-05-15T15:04:59;4.27;;;3.87;;
11000;SDS011;5553;48.506;8.870;2023-05-15T15:07:31;4.50;;;4.10;;
11000;SDS011;5553;48.506;8.870;2023-05-15T15:10:26;4.03;;;3.73;;
11000;SDS011;5553;48.506;8.870;2023-05-15T15:12:55;4.37;;;4.07;;
11000;SDS011;5553;48.506;8.870;2023-05-15T15:15:23;4.17;;;3.83;;
11000;SDS011;5553;48.506;8.870;2023-05-15T15:17:52;3.60;;;3.30;;
11000;SDS011;5553;48.506;8.870;2023-05-15T15:20:22;3.73;;;3.43;;
11000;SDS011;5553;48.506;8.870;2023-05-15T15:22:54;4.60;;;3.27;;
11000;SDS011;5553;48.506;8.870;2023-05-15T15:25:23;4.37;;;3.97;;